sensor_id;sensor_type;location;lat;lon;timestamp;pressure;altitude;pressure_sealevel;temperature;humidity
61740;BME280;47645;45.288;12.038;2024-03-25T00:04:12;1007.9344048506582;;;9.530078125;100
61740;BME280;47645;45.288;12.038;2024-03-25T00:14:12;1007.8910743511722;;;9.1833984375;100
61740;BME280;47645;45.288;12.038;2024-03-25T00:24:13;1007.8595914515303;;;9.346484375;100
61740;BME280;47645;45.288;12.038;2024-03-25T00:34:14;1007.7827405060816;;;9.24453125;100
61740;BME280;47645;45.288;12.038;2024-03-25T00:44:15;1007.7916519358795;;;9.12734375;100
61740;BME280;47645;45.288;12.038;2024-03-25T00:54:15;1007.6322628698309;;;8.694140625;100
61740;BME280;47645;45.288;12.038;2024-03-25T01:04:16;1007.6146255121217;;;8.373046875;100
61740;BME280;47645;45.288;12.038;2024-03-25T01:14:17;1007.5564035185131;;;8.2966796875;100
61740;BME280;47645;45.288;12.038;2024-03-25T01:24:17;1007.5764212864103;;;8.66875;100
61740;BME280;47645;45.288;12.038;2024-03-25T01:34:18;1007.6020315784309;;;8.8369140625;100
61740;BME280;47645;45.288;12.038;2024-03-25T01:44:19;1007.6224992721777;;;8.5056640625;100
61740;BME280;47645;45.288;12.038;2024-03-25T01:54:20;1007.6160048657448;;;8.4546875;100
61740;BME280;47645;45.288;12.038;2024-03-25T02:04:20;1007.6132874252361;;;8.3986328125;100
61740;BME280;47645;45.288;12.038;2024-03-25T02:14:21;1007.6495196285694;;;8.332421875;100
61740;BME280;47645;45.288;12.038;2024-03-25T02:24:23;1007.5190387547358;;;8.266015625;100
61740;BME280;47645;45.288;12.038;2024-03-25T02:34:22;1007.5269285401037;;;8.245703125;100
61740;BME280;47645;45.288;12.038;2024-03-25T02:44:23;1007.5241142272477;;;8.245703125;100
61740;BME280;47645;45.288;12.038;2024-03-25T02:54:23;1007.6035993981836;;;8.128515625;100
61740;BME280;47645;45.288;12.038;2024-03-25T03:04:24;1007.6325360985179;;;7.914453125;100
61740;BME280;47645;45.288;12.038;2024-03-25T03:14:25;1007.6602625061672;;;7.8431640625;100
61740;BME280;47645;45.288;12.038;2024-03-25T03:24:26;1007.7266023315472;;;7.6443359375;100
61740;BME280;47645;45.288;12.038;2024-03-25T03:34:26;1007.6773407093075;;;7.700390625;100
61740;BME280;47645;45.288;12.038;2024-03-25T03:44:27;1007.6826050789219;;;7.623828125;100
61740;BME280;47645;45.288;12.038;2024-03-25T03:54:27;1007.8211570420368;;;7.5474609375;100
61740;BME280;47645;45.288;12.038;2024-03-25T04:04:28;1007.779410615566;;;7.466015625;100
61740;BME280;47645;45.288;12.038;2024-03-25T04:14:29;1007.8608718983282;;;7.4404296875;100
61740;BME280;47645;45.288;12.038;2024-03-25T04:24:29;1007.9498920873496;;;7.369140625;100
61740;BME280;47645;45.288;12.038;2024-03-25T04:34:30;1008.0494155974354;;;7.29765625;100
61740;BME280;47645;45.288;12.038;2024-03-25T04:44:31;1008.0155753240782;;;7.16015625;100
61740;BME280;47645;45.288;12.038;2024-03-25T04:54:31;1007.9258655514367;;;7.155078125;100
61740;BME280;47645;45.288;12.038;2024-03-25T05:04:32;1007.9240777645662;;;7.0837890625;100
61740;BME280;47645;45.288;12.038;2024-03-25T05:14:33;1008.0016278851248;;;6.9001953125;100
61740;BME280;47645;45.288;12.038;2024-03-25T05:24:33;1008.0441607975657;;;6.533203125;100
61740;BME280;47645;45.288;12.038;2024-03-25T05:34:34;1008.0811642411381;;;6.3701171875;100
61740;BME280;47645;45.288;12.038;2024-03-25T05:44:35;1008.1961538059259;;;6.8646484375;100
61740;BME280;47645;45.288;12.038;2024-03-25T05:54:35;1008.3282777459463;;;6.9919921875;100
61740;BME280;47645;45.288;12.038;2024-03-25T06:04:36;1008.2847222507344;;;6.8849609375;100
61740;BME280;47645;45.288;12.038;2024-03-25T06:14:38;1008.4705582769741;;;6.8900390625;100
61740;BME280;47645;45.288;12.038;2024-03-25T06:24:38;1008.5564639165353;;;7.04296875;100
61740;BME280;47645;45.288;12.038;2024-03-25T06:34:38;1008.6615949456724;;;7.4505859375;100
61740;BME280;47645;45.288;12.038;2024-03-25T06:44:39;1008.8208841937791;;;7.61875;100
61740;BME280;47645;45.288;12.038;2024-03-25T06:54:39;1008.7944161464625;;;7.583203125;100
61740;BME280;47645;45.288;12.038;2024-03-25T07:04:45;1008.835721242308;;;7.7716796875;100
61740;BME280;47645;45.288;12.038;2024-03-25T07:14:41;1008.7163963330967;;;8.4546875;100
61740;BME280;47645;45.288;12.038;2024-03-25T07:24:41;1008.7170745931672;;;8.918359375;99.8408402177076
61740;BME280;47645;45.288;12.038;2024-03-25T07:34:42;1008.7560657075647;;;9.4484375;98.15561363962263
61740;BME280;47645;45.288;12.038;2024-03-25T07:44:42;1008.736719806224;;;9.96328125;89.63640166943794
61740;BME280;47645;45.288;12.038;2024-03-25T07:54:43;1008.791067962108;;;10.4830078125;89.5043365413414
61740;BME280;47645;45.288;12.038;2024-03-25T08:04:44;1008.8700689746803;;;11.04375;82.81831921989166
61740;BME280;47645;45.288;12.038;2024-03-25T08:14:44;1009.0630203823338;;;11.3138671875;73.12418185964835
61740;BME280;47645;45.288;12.038;2024-03-25T08:24:45;1009.2421247049875;;;11.2322265625;79.04798404271686
61740;BME280;47645;45.288;12.038;2024-03-25T08:34:46;1009.2868245646474;;;11.1609375;86.10274569316773
61740;BME280;47645;45.288;12.038;2024-03-25T08:44:46;1009.403296705471;;;11.466796875;87.65645302322197
61740;BME280;47645;45.288;12.038;2024-03-25T08:54:47;1009.5104656834213;;;11.88984375;91.00056042145424
61740;BME280;47645;45.288;12.038;2024-03-25T09:04:48;1009.5587175885372;;;12.526953125;91.34250401476069
61740;BME280;47645;45.288;12.038;2024-03-25T09:14:48;1009.4534353909804;;;12.8939453125;86.7653252262375
61740;BME280;47645;45.288;12.038;2024-03-25T09:24:50;1009.4479840868016;;;13.4953125;88.41910773704929
61740;BME280;47645;45.288;12.038;2024-03-25T09:34:52;1009.5322307026125;;;14.0099609375;82.793673125945
61740;BME280;47645;45.288;12.038;2024-03-25T09:44:51;1009.3560991742849;;;14.8;82.87839222629256
61740;BME280;47645;45.288;12.038;2024-03-25T09:54:52;1009.2178108046178;;;14.912109375;70.42043855757308
61740;BME280;47645;45.288;12.038;2024-03-25T10:04:53;1009.1479316225298;;;16.242578125;74.84259979476788
61740;BME280;47645;45.288;12.038;2024-03-25T10:14:54;1009.1192298768343;;;17.3486328125;68.59966197365053
61740;BME280;47645;45.288;12.038;2024-03-25T10:24:54;1009.0389942386993;;;17.93984375;65.97594771402763
61740;BME280;47645;45.288;12.038;2024-03-25T10:34:55;1009.0573014336784;;;17.333203125;60.05527837826726
61740;BME280;47645;45.288;12.038;2024-03-25T10:44:57;1008.8734489327284;;;18.8267578125;66.13656598845115
61740;BME280;47645;45.288;12.038;2024-03-25T10:54:57;1008.7708453762959;;;19.6015625;53.42476544766043
61740;BME280;47645;45.288;12.038;2024-03-25T11:04:59;1008.6570003629921;;;20.146875;58.50839577546531
61740;BME280;47645;45.288;12.038;2024-03-25T11:15:01;1008.5528259248101;;;20.4119140625;59.358705707274936
61740;BME280;47645;45.288;12.038;2024-03-25T11:25:13;1008.4239551576716;;;21.0134765625;55.93539368420032
61740;BME280;47645;45.288;12.038;2024-03-25T11:35:02;1008.3252973137902;;;21.181640625;48.96141761465572
61740;BME280;47645;45.288;12.038;2024-03-25T11:45:05;1008.232230920894;;;21.4416015625;50.98065765192934
61740;BME280;47645;45.288;12.038;2024-03-25T11:50:08;1008.1949358118687;;;21.813671875;48.50871694897415
61740;BME280;47645;45.288;12.038;2024-03-25T12:00:07;1008.1227114169858;;;22.211328125;47.02601981870222
61740;BME280;47645;45.288;12.038;2024-03-25T12:20:09;1007.8213909855883;;;22.8025390625;36.013280951305184
61740;BME280;47645;45.288;12.038;2024-03-25T12:30:10;1007.8099726664263;;;22.9248046875;35.04072103947433
61740;BME280;47645;45.288;12.038;2024-03-25T12:40:11;1007.6465120459117;;;23.0931640625;47.43707533482847
61740;BME280;47645;45.288;12.038;2024-03-25T12:50:11;1007.6321357299781;;;22.639453125;52.04496337661429
61740;BME280;47645;45.288;12.038;2024-03-25T13:00:13;1007.6017308543181;;;22.027734375;53.63015477382654
61740;BME280;47645;45.288;12.038;2024-03-25T13:10:13;1007.4925133516574;;;22.251953125;51.913806130495864
61740;BME280;47645;45.288;12.038;2024-03-25T13:20:14;1007.3677388976372;;;21.7728515625;49.57028005449993
61740;BME280;47645;45.288;12.038;2024-03-25T13:30:16;1007.4253873233741;;;21.6404296875;53.56185616124066
61740;BME280;47645;45.288;12.038;2024-03-25T13:40:18;1007.2702739577359;;;21.803515625;52.80333743727939
61740;BME280;47645;45.288;12.038;2024-03-25T13:50:19;1007.2667990669449;;;21.385546875;52.56767878888639
61740;BME280;47645;45.288;12.038;2024-03-25T14:00:20;1007.1858438934938;;;20.7431640625;57.74950060898941
61740;BME280;47645;45.288;12.038;2024-03-25T14:10:22;1007.2006512372827;;;19.392578125;59.75241797155267
61740;BME280;47645;45.288;12.038;2024-03-25T14:20:22;1007.1064248582699;;;20.2130859375;58.71581146891951
61740;BME280;47645;45.288;12.038;2024-03-25T14:30:23;1007.0363917671043;;;20.3966796875;52.70018149432174
61740;BME280;47645;45.288;12.038;2024-03-25T14:40:24;1007.0410761172456;;;20.340625;55.84262201157399
61740;BME280;47645;45.288;12.038;2024-03-25T14:50:25;1007.0752538966565;;;19.937890625;58.031770944014035
61740;BME280;47645;45.288;12.038;2024-03-25T15:00:26;1006.9686143013382;;;19.33125;61.14436058672223
61740;BME280;47645;45.288;12.038;2024-03-25T15:10:27;1006.9443192601086;;;18.903125;63.51101156399823
61740;BME280;47645;45.288;12.038;2024-03-25T15:20:28;1006.7959998888334;;;18.6177734375;63.02986578128276
61740;BME280;47645;45.288;12.038;2024-03-25T15:30:30;1006.6288855461971;;;18.1845703125;60.87259823488727
61740;BME280;47645;45.288;12.038;2024-03-25T15:40:31;1006.5910316190738;;;18.03671875;68.18538983701217
61740;BME280;47645;45.288;12.038;2024-03-25T15:50:31;1006.63712564482;;;17.3587890625;66.42261191882204
61740;BME280;47645;45.288;12.038;2024-03-25T16:00:32;1006.5281138928171;;;17.292578125;74.84233664379387
61740;BME280;47645;45.288;12.038;2024-03-25T16:10:34;1006.4663381423048;;;16.98671875;76.63784702049868
61740;BME280;47645;45.288;12.038;2024-03-25T16:20:34;1006.4052334623626;;;16.767578125;79.54868040241857
61740;BME280;47645;45.288;12.038;2024-03-25T16:30:36;1006.3600314970436;;;16.4208984375;81.20334863598875
61740;BME280;47645;45.288;12.038;2024-03-25T16:40:37;1006.3181881477886;;;16.145703125;80.76090070813379
61740;BME280;47645;45.288;12.038;2024-03-25T16:50:38;1006.3437188916464;;;15.931640625;86.1783349246239
61740;BME280;47645;45.288;12.038;2024-03-25T17:00:41;1006.3340190611681;;;15.6666015625;86.14386964816765
61740;BME280;47645;45.288;12.038;2024-03-25T17:10:40;1006.3133934590463;;;15.41171875;88.17677317569563
61740;BME280;47645;45.288;12.038;2024-03-25T17:20:42;1006.3436092919193;;;15.095703125;89.6058085821806
61740;BME280;47645;45.288;12.038;2024-03-25T17:30:44;1006.2880160201958;;;14.912109375;91.47955358993839
61740;BME280;47645;45.288;12.038;2024-03-25T17:40:42;1006.2219814744229;;;14.8205078125;92.0988451175384
61740;BME280;47645;45.288;12.038;2024-03-25T17:50:43;1006.2515932711052;;;14.6013671875;93.11061286020247
61740;BME280;47645;45.288;12.038;2024-03-25T18:00:45;1006.2974389002031;;;14.3208984375;96.18504858332123
61740;BME280;47645;45.288;12.038;2024-03-25T18:10:46;1006.3317912530214;;;14.142578125;97.48643376044785
61740;BME280;47645;45.288;12.038;2024-03-25T18:20:46;1006.3276610123116;;;13.9896484375;98.51513389209808
61740;BME280;47645;45.288;12.038;2024-03-25T18:30:55;1006.4058023979411;;;13.744921875;99.50087474848694
61740;BME280;47645;45.288;12.038;2024-03-25T18:40:48;1006.4210512149084;;;13.6125;100
61740;BME280;47645;45.288;12.038;2024-03-25T18:50:49;1006.4968056553677;;;13.4544921875;100
61740;BME280;47645;45.288;12.038;2024-03-25T19:00:50;1006.5107105978148;;;13.3015625;100
61740;BME280;47645;45.288;12.038;2024-03-25T19:10:51;1006.4768599233453;;;13.0875;100
61740;BME280;47645;45.288;12.038;2024-03-25T19:20:52;1006.448456443838;;;12.9396484375;100
61740;BME280;47645;45.288;12.038;2024-03-25T19:30:53;1006.4129989999008;;;12.6185546875;100
61740;BME280;47645;45.288;12.038;2024-03-25T19:40:54;1006.4789352211471;;;12.5064453125;100
61740;BME280;47645;45.288;12.038;2024-03-25T19:50:55;1006.4254447501667;;;12.3078125;100
61740;BME280;47645;45.288;12.038;2024-03-25T20:00:55;1006.3569986505178;;;12.2515625;100
61740;BME280;47645;45.288;12.038;2024-03-25T20:10:57;1006.317579022661;;;11.670703125;100
61740;BME280;47645;45.288;12.038;2024-03-25T20:20:57;1006.1385964165877;;;11.4515625;100
61740;BME280;47645;45.288;12.038;2024-03-25T20:30:58;1006.1365923715832;;;11.4361328125;100
61740;BME280;47645;45.288;12.038;2024-03-25T20:40:59;1006.1340956806716;;;11.4412109375;100
61740;BME280;47645;45.288;12.038;2024-03-25T20:50:59;1006.2340664145657;;;11.4462890625;100
61740;BME280;47645;45.288;12.038;2024-03-25T21:01:00;1006.3227711450227;;;11.4361328125;100
61740;BME280;47645;45.288;12.038;2024-03-25T21:11:01;1006.4200411258097;;;11.3546875;100
61740;BME280;47645;45.288;12.038;2024-03-25T21:21:02;1006.4297550740062;;;11.573828125;100
61740;BME280;47645;45.288;12.038;2024-03-25T21:31:04;1006.6429492540195;;;11.466796875;100
61740;BME280;47645;45.288;12.038;2024-03-25T21:41:04;1006.710135709665;;;11.3546875;100
61740;BME280;47645;45.288;12.038;2024-03-25T21:51:05;1006.8753386865352;;;11.5279296875;100
61740;BME280;47645;45.288;12.038;2024-03-25T22:01:05;1006.90732431321;;;11.273046875;100
61740;BME280;47645;45.288;12.038;2024-03-25T22:11:06;1006.8186886664658;;;11.375;100
61740;BME280;47645;45.288;12.038;2024-03-25T22:21:07;1006.8021915714743;;;11.3087890625;100
61740;BME280;47645;45.288;12.038;2024-03-25T22:31:08;1006.743684937277;;;11.145703125;100
61740;BME280;47645;45.288;12.038;2024-03-25T22:41:09;1006.717049496567;;;10.8755859375;100
61740;BME280;47645;45.288;12.038;2024-03-25T22:51:09;1006.8108526297963;;;10.855078125;100
61740;BME280;47645;45.288;12.038;2024-03-25T23:01:10;1006.846997142929;;;10.6615234375;100
61740;BME280;47645;45.288;12.038;2024-03-25T23:11:11;1006.8355107059601;;;10.4373046875;100
61740;BME280;47645;45.288;12.038;2024-03-25T23:21:12;1006.7924618801599;;;10.3251953125;100
61740;BME280;47645;45.288;12.038;2024-03-25T23:31:13;1006.7417029603089;;;10.279296875;100
61740;BME280;47645;45.288;12.038;2024-03-25T23:41:13;1006.6795557522004;;;10.10078125;100
61740;BME280;47645;45.288;12.038;2024-03-25T23:51:14;1006.5680774605078;;;9.8306640625;100
